Time;durP1;ratioP1;P1;durP2;ratioP2;P2;SDS_P1;SDS_P2;PMS_P1;PMS_P2;Temp;Humidity;BMP_temperature;BMP_pressure;BME280_temperature;BME280_humidity;BME280_pressure;Samples;Min_cycle;Max_cycle;Signal;HPM_P1;HPM_P2
2023/09/21 00:01:11;;;;;;;4.63;1.63;;;16.20;99.90;;;;;;5040977;28;20060;-65
2023/09/21 00:03:39;;;;;;;3.72;2.30;;;16.10;99.90;;;;;;5041351;28;20017;-66
2023/09/21 00:06:05;;;;;;;3.13;1.88;;;16.10;99.90;;;;;;5040499;28;20029;-65
2023/09/21 00:08:31;;;;;;;3.08;1.70;;;16.10;99.90;;;;;;5046287;28;20071;-66
2023/09/21 00:10:58;;;;;;;5.22;1.40;;;16.10;99.90;;;;;;5044584;28;20037;-64
2023/09/21 00:13:27;;;;;;;2.88;1.88;;;16.10;99.90;;;;;;5044096;28;20063;-66
2023/09/21 00:15:53;;;;;;;2.58;1.52;;;16.00;99.90;;;;;;5042858;28;20104;-64
2023/09/21 00:18:22;;;;;;;2.92;1.77;;;16.00;99.90;;;;;;5043235;28;20710;-60
2023/09/21 00:20:52;;;;;;;2.13;1.50;;;16.00;99.90;;;;;;5041922;28;20483;-66
2023/09/21 00:23:27;;;;;;;4.75;1.65;;;16.00;99.90;;;;;;5042908;28;20079;-64
2023/09/21 00:25:57;;;;;;;1.83;1.40;;;16.00;99.90;;;;;;5032515;28;20156;-65
2023/09/21 00:28:24;;;;;;;4.82;1.83;;;16.00;99.90;;;;;;5024821;28;20107;-65
2023/09/21 00:30:57;;;;;;;3.13;1.70;;;16.00;99.90;;;;;;5045902;28;20120;-65
2023/09/21 00:33:27;;;;;;;3.78;2.03;;;16.00;99.90;;;;;;5045681;28;20040;-66
2023/09/21 00:35:53;;;;;;;2.53;1.38;;;16.00;99.90;;;;;;5043819;28;20033;-65
2023/09/21 00:38:20;;;;;;;3.20;1.75;;;16.00;99.90;;;;;;5047014;28;20029;-65
2023/09/21 00:40:47;;;;;;;3.47;1.63;;;15.90;99.90;;;;;;5044100;28;20111;-66
2023/09/21 00:43:21;;;;;;;2.45;1.45;;;15.90;99.90;;;;;;5045103;28;20025;-63
2023/09/21 00:45:54;;;;;;;3.25;1.77;;;15.90;99.90;;;;;;5046380;28;20024;-66
2023/09/21 00:48:25;;;;;;;2.75;1.42;;;15.80;99.90;;;;;;5045696;28;20036;-66
2023/09/21 00:50:53;;;;;;;5.20;1.52;;;15.80;99.90;;;;;;5044533;28;20036;-65
2023/09/21 00:53:20;;;;;;;8.32;1.42;;;15.80;99.90;;;;;;5044784;28;20929;-65
2023/09/21 00:55:51;;;;;;;5.30;2.33;;;15.80;99.90;;;;;;5045319;28;20402;-64
2023/09/21 00:58:19;;;;;;;3.88;1.63;;;15.80;99.90;;;;;;5045429;28;20118;-64
2023/09/21 01:00:45;;;;;;;5.13;2.45;;;15.80;99.90;;;;;;5046692;28;20017;-65
2023/09/21 01:03:12;;;;;;;3.60;1.98;;;15.80;99.90;;;;;;5045528;28;20020;-67
2023/09/21 01:05:41;;;;;;;3.72;1.70;;;15.80;99.90;;;;;;5047061;28;20009;-67
2023/09/21 01:08:21;;;;;;;4.90;1.88;;;15.80;99.90;;;;;;5036839;28;20087;-66
2023/09/21 01:10:50;;;;;;;4.40;1.90;;;15.80;99.90;;;;;;5036771;28;20448;-65
2023/09/21 01:13:17;;;;;;;3.08;1.27;;;15.80;99.90;;;;;;5027643;28;20025;-66
2023/09/21 01:15:58;;;;;;;4.72;1.70;;;15.80;99.90;;;;;;5039588;28;20136;-66
2023/09/21 01:18:24;;;;;;;2.58;1.42;;;15.80;99.90;;;;;;5040346;28;20541;-65
2023/09/21 01:20:54;;;;;;;2.65;1.48;;;15.80;99.90;;;;;;5041591;28;20151;-65
2023/09/21 01:23:24;;;;;;;3.08;1.50;;;15.70;99.90;;;;;;5039665;28;20120;-67
2023/09/21 01:25:50;;;;;;;2.53;1.60;;;15.60;99.90;;;;;;5042014;28;20060;-66
2023/09/21 01:28:22;;;;;;;3.95;1.52;;;15.60;99.90;;;;;;5022446;28;20080;-66
2023/09/21 01:30:51;;;;;;;4.55;1.75;;;15.60;99.90;;;;;;5043962;28;20127;-64
2023/09/21 01:33:17;;;;;;;2.75;1.70;;;15.60;99.90;;;;;;5043523;28;20036;-67
2023/09/21 01:35:43;;;;;;;3.25;1.40;;;15.50;99.90;;;;;;5042534;28;20032;-67
2023/09/21 01:38:10;;;;;;;2.85;1.80;;;15.60;99.90;;;;;;5043806;28;20098;-65
2023/09/21 01:40:40;;;;;;;2.97;1.83;;;15.60;99.90;;;;;;5044440;28;20025;-66
2023/09/21 01:43:08;;;;;;;2.70;1.42;;;15.60;99.90;;;;;;5043376;28;20082;-64
2023/09/21 01:45:34;;;;;;;3.15;1.85;;;15.60;99.90;;;;;;5043142;28;20060;-65
2023/09/21 01:48:01;;;;;;;6.15;2.25;;;15.60;99.90;;;;;;5044455;28;20036;-65
2023/09/21 01:50:28;;;;;;;3.42;1.52;;;15.60;99.90;;;;;;5043017;28;20024;-65
2023/09/21 01:52:55;;;;;;;6.63;1.60;;;15.60;99.90;;;;;;5043996;28;20017;-65
2023/09/21 01:55:21;;;;;;;3.17;1.52;;;15.60;99.90;;;;;;5042202;28;20118;-66
2023/09/21 01:57:47;;;;;;;3.80;1.35;;;15.60;99.90;;;;;;5040871;28;20033;-62
2023/09/21 02:00:25;;;;;;;4.18;1.88;;;15.70;99.90;;;;;;5041618;28;20017;-65
2023/09/21 02:02:52;;;;;;;2.40;1.30;;;15.80;99.90;;;;;;5043394;28;20057;-65
2023/09/21 02:05:18;;;;;;;5.32;1.55;;;15.80;99.90;;;;;;5043534;28;20029;-65
2023/09/21 02:07:43;;;;;;;2.33;1.60;;;15.90;99.90;;;;;;5042307;28;20039;-66
2023/09/21 02:10:10;;;;;;;3.00;1.63;;;15.90;99.90;;;;;;5042679;28;20048;-67
2023/09/21 02:12:37;;;;;;;3.22;1.45;;;15.90;99.90;;;;;;5043169;28;20075;-65
2023/09/21 02:15:10;;;;;;;2.25;1.42;;;15.90;99.90;;;;;;5043343;28;20032;-65
2023/09/21 02:17:41;;;;;;;2.30;1.25;;;15.90;99.90;;;;;;5040861;28;20081;-65
2023/09/21 02:20:15;;;;;;;4.40;1.60;;;15.90;99.90;;;;;;5043014;28;20083;-67
2023/09/21 02:22:46;;;;;;;5.25;1.48;;;16.00;99.90;;;;;;5042423;28;20414;-65
2023/09/21 02:25:12;;;;;;;2.80;1.80;;;16.00;99.90;;;;;;5041939;28;20054;-65
2023/09/21 02:27:40;;;;;;;2.40;1.80;;;16.10;99.90;;;;;;5038280;28;20062;-65
2023/09/21 02:30:07;;;;;;;2.28;1.60;;;16.10;99.90;;;;;;5025325;28;20060;-65
2023/09/21 02:32:33;;;;;;;4.50;1.55;;;16.10;99.90;;;;;;5042306;28;20021;-64
2023/09/21 02:35:00;;;;;;;4.30;1.40;;;16.10;99.90;;;;;;5037180;28;20409;-65
2023/09/21 02:37:25;;;;;;;2.38;1.75;;;16.10;99.90;;;;;;5041370;28;20021;-67
2023/09/21 02:39:51;;;;;;;2.80;1.58;;;16.20;99.90;;;;;;5044419;28;20060;-64
2023/09/21 02:42:16;;;;;;;7.20;1.77;;;16.20;99.90;;;;;;5040860;28;20029;-65
2023/09/21 02:44:44;;;;;;;2.08;1.55;;;16.20;99.90;;;;;;5043363;28;20028;-65
2023/09/21 02:47:09;;;;;;;2.47;1.23;;;16.20;99.90;;;;;;5042537;28;20029;-66
2023/09/21 02:49:35;;;;;;;2.45;1.45;;;16.20;99.90;;;;;;5041481;28;20094;-64
2023/09/21 02:52:01;;;;;;;3.22;1.38;;;16.20;99.90;;;;;;5042174;28;20057;-67
2023/09/21 02:54:27;;;;;;;3.08;1.73;;;16.20;99.90;;;;;;5043835;28;20108;-64
2023/09/21 02:56:53;;;;;;;3.08;1.83;;;16.20;99.90;;;;;;5043850;28;20028;-65
2023/09/21 02:59:19;;;;;;;6.03;1.63;;;16.20;99.90;;;;;;5044522;28;20394;-65
2023/09/21 03:01:45;;;;;;;2.20;1.25;;;16.20;99.90;;;;;;5044244;28;20017;-65
2023/09/21 03:04:12;;;;;;;3.22;1.45;;;16.20;99.90;;;;;;5041394;28;20059;-66
2023/09/21 03:06:37;;;;;;;3.40;1.63;;;16.20;99.90;;;;;;5039408;28;20028;-65
2023/09/21 03:09:05;;;;;;;2.65;2.03;;;16.20;99.90;;;;;;5041621;28;20069;-66
2023/09/21 03:11:30;;;;;;;3.60;1.77;;;16.30;99.90;;;;;;5039222;28;20048;-68
2023/09/21 03:13:56;;;;;;;2.90;1.20;;;16.30;99.90;;;;;;5040669;28;20675;-66
2023/09/21 03:16:21;;;;;;;4.65;1.60;;;16.30;99.90;;;;;;5043408;28;20103;-65
2023/09/21 03:18:47;;;;;;;3.97;2.03;;;16.30;99.90;;;;;;5043251;28;20033;-65
2023/09/21 03:21:15;;;;;;;4.45;1.70;;;16.30;99.90;;;;;;5043891;28;20783;-65
2023/09/21 03:23:41;;;;;;;4.88;1.85;;;16.30;99.90;;;;;;5043890;28;20078;-67
2023/09/21 03:26:11;;;;;;;4.03;2.22;;;16.40;99.90;;;;;;5042438;28;20028;-63
2023/09/21 03:28:37;;;;;;;2.38;1.27;;;16.40;99.90;;;;;;5015520;28;20473;-66
2023/09/21 03:31:03;;;;;;;5.72;1.65;;;16.40;99.90;;;;;;5050665;28;20060;-64
2023/09/21 03:33:28;;;;;;;2.08;1.38;;;16.40;99.90;;;;;;5039034;28;20038;-64
2023/09/21 03:35:54;;;;;;;3.38;1.58;;;16.50;99.90;;;;;;5037631;28;20506;-66
2023/09/21 03:38:20;;;;;;;2.95;1.83;;;16.40;99.90;;;;;;5036378;28;20028;-66
2023/09/21 03:40:48;;;;;;;3.17;1.85;;;16.40;99.90;;;;;;5036758;28;20063;-65
2023/09/21 03:43:13;;;;;;;4.18;1.75;;;16.40;99.90;;;;;;5041081;28;20394;-68
2023/09/21 03:45:41;;;;;;;2.00;1.40;;;16.40;99.90;;;;;;5041447;28;20029;-66
2023/09/21 03:48:08;;;;;;;3.30;1.73;;;16.40;99.90;;;;;;5041483;28;20136;-64
2023/09/21 03:50:35;;;;;;;2.97;1.58;;;16.30;99.90;;;;;;5044418;28;20025;-64
2023/09/21 03:53:04;;;;;;;2.78;1.33;;;16.30;99.90;;;;;;5046990;28;20502;-64
2023/09/21 03:55:29;;;;;;;4.03;1.60;;;16.30;99.90;;;;;;5045518;28;20029;-66
2023/09/21 03:57:55;;;;;;;3.65;1.42;;;16.40;99.90;;;;;;5043750;28;20041;-66
2023/09/21 04:02:51;;;;;;;3.17;1.42;;;16.30;99.90;;;;;;5045490;28;20063;-65
2023/09/21 04:05:19;;;;;;;2.72;1.40;;;16.30;99.90;;;;;;5046124;28;20053;-65
2023/09/21 04:07:47;;;;;;;2.45;1.58;;;16.40;99.90;;;;;;5041178;28;20063;-65
2023/09/21 04:10:14;;;;;;;3.28;1.75;;;16.40;99.90;;;;;;5041664;28;20028;-64
2023/09/21 04:12:39;;;;;;;7.45;2.08;;;16.40;99.90;;;;;;5046204;28;20040;-66
2023/09/21 04:15:07;;;;;;;6.40;1.77;;;16.30;99.90;;;;;;5044566;28;20033;-65
2023/09/21 04:17:33;;;;;;;3.10;1.23;;;16.30;99.90;;;;;;5046965;28;20061;-65
2023/09/21 04:19:58;;;;;;;2.22;1.48;;;16.20;99.90;;;;;;5043325;28;20065;-65
2023/09/21 04:22:24;;;;;;;4.15;1.30;;;16.20;99.90;;;;;;5039564;28;20059;-66
2023/09/21 04:24:50;;;;;;;2.78;1.40;;;16.20;99.90;;;;;;5039249;28;20569;-66
2023/09/21 04:27:15;;;;;;;2.70;1.80;;;16.10;99.90;;;;;;5039686;28;20044;-64
2023/09/21 04:29:41;;;;;;;4.65;2.00;;;16.00;99.90;;;;;;5015346;28;22106;-65
2023/09/21 04:32:09;;;;;;;3.22;1.70;;;16.00;99.90;;;;;;5040211;28;20083;-65
2023/09/21 04:34:36;;;;;;;2.35;1.67;;;16.00;99.90;;;;;;5039978;28;20037;-68
2023/09/21 04:37:02;;;;;;;3.80;1.95;;;15.90;99.90;;;;;;5038629;28;20043;-67
2023/09/21 04:39:28;;;;;;;2.83;1.70;;;15.90;99.90;;;;;;5041526;28;20039;-65
2023/09/21 04:41:53;;;;;;;2.20;1.65;;;15.90;99.90;;;;;;5044470;28;20025;-66
2023/09/21 04:44:19;;;;;;;7.15;1.77;;;15.90;99.90;;;;;;5046613;28;20398;-66
2023/09/21 04:46:44;;;;;;;2.53;1.88;;;16.00;99.90;;;;;;5046350;28;20025;-64
2023/09/21 04:49:10;;;;;;;3.55;1.40;;;16.00;99.90;;;;;;5046290;28;20037;-65
2023/09/21 04:51:38;;;;;;;3.40;1.40;;;16.00;99.90;;;;;;5044451;28;20456;-65
2023/09/21 04:54:04;;;;;;;4.70;1.55;;;16.00;99.90;;;;;;5044003;28;20025;-64
2023/09/21 04:56:29;;;;;;;2.60;1.30;;;16.00;99.90;;;;;;5045054;28;20086;-65
2023/09/21 04:58:55;;;;;;;5.57;1.80;;;16.00;99.90;;;;;;5045721;28;21198;-65
2023/09/21 05:01:25;;;;;;;4.88;1.98;;;15.90;99.90;;;;;;5046728;28;20054;-64
2023/09/21 05:03:50;;;;;;;5.30;1.65;;;15.80;99.90;;;;;;5045988;28;20056;-62
2023/09/21 05:06:18;;;;;;;2.55;1.90;;;15.70;99.90;;;;;;5043050;28;20442;-66
2023/09/21 05:08:44;;;;;;;3.30;1.90;;;15.70;99.90;;;;;;5043182;28;20025;-66
2023/09/21 05:11:10;;;;;;;7.50;1.52;;;15.70;99.90;;;;;;5042482;28;20101;-64
2023/09/21 05:13:36;;;;;;;3.53;1.33;;;15.80;99.90;;;;;;5043063;28;20036;-64
2023/09/21 05:16:03;;;;;;;8.63;1.85;;;15.80;99.90;;;;;;5041733;28;20032;-67
2023/09/21 05:18:30;;;;;;;4.13;1.83;;;15.80;99.90;;;;;;5042353;28;20469;-65
2023/09/21 05:20:56;;;;;;;5.60;1.92;;;15.80;99.90;;;;;;5042801;28;20040;-64
2023/09/21 05:23:21;;;;;;;4.60;1.55;;;15.90;99.90;;;;;;5042857;28;20038;-65
2023/09/21 05:25:47;;;;;;;2.67;1.55;;;15.90;99.90;;;;;;5044963;28;20077;-66
2023/09/21 05:28:14;;;;;;;2.47;1.67;;;15.90;99.90;;;;;;5028292;28;20040;-65
2023/09/21 05:30:40;;;;;;;3.03;1.80;;;15.90;99.90;;;;;;5038520;28;20450;-63
2023/09/21 05:33:07;;;;;;;3.65;1.85;;;15.90;99.90;;;;;;5037707;28;20031;-65
2023/09/21 05:35:33;;;;;;;2.85;1.50;;;15.90;99.90;;;;;;5038524;28;20051;-65
2023/09/21 05:37:58;;;;;;;3.38;1.73;;;16.00;99.90;;;;;;5037795;28;20037;-64
2023/09/21 05:40:24;;;;;;;2.40;1.42;;;16.00;99.90;;;;;;5038765;28;20029;-65
2023/09/21 05:42:50;;;;;;;2.40;1.38;;;16.10;99.90;;;;;;5039736;28;20025;-63
2023/09/21 05:45:15;;;;;;;3.10;1.83;;;16.10;99.90;;;;;;5039682;28;20048;-64
2023/09/21 05:47:41;;;;;;;5.22;1.88;;;16.10;99.90;;;;;;5039628;28;20043;-68
2023/09/21 05:50:08;;;;;;;2.38;1.48;;;16.20;99.90;;;;;;5035903;28;20047;-64
2023/09/21 05:52:35;;;;;;;4.00;1.70;;;16.30;99.90;;;;;;5043347;28;20108;-63
2023/09/21 05:55:01;;;;;;;2.83;1.55;;;16.40;99.90;;;;;;5033998;28;20025;-64
2023/09/21 05:57:27;;;;;;;2.42;1.70;;;16.50;99.90;;;;;;5042529;28;20522;-64
2023/09/21 05:59:53;;;;;;;4.28;1.98;;;16.60;99.90;;;;;;5044148;28;20107;-65
2023/09/21 06:02:19;;;;;;;3.25;1.67;;;16.70;99.90;;;;;;5041252;28;20388;-66
2023/09/21 06:04:46;;;;;;;2.08;1.60;;;16.70;99.90;;;;;;5042001;28;20033;-66
2023/09/21 06:07:12;;;;;;;2.58;1.33;;;16.80;99.90;;;;;;5040503;28;20039;-65
2023/09/21 06:09:38;;;;;;;1.60;1.45;;;16.90;99.90;;;;;;5040657;28;20037;-65
2023/09/21 06:12:07;;;;;;;5.28;1.90;;;16.90;99.90;;;;;;5042150;28;20043;-65
2023/09/21 06:14:36;;;;;;;3.45;1.67;;;17.10;99.90;;;;;;5044679;28;20029;-65
2023/09/21 06:17:04;;;;;;;5.20;1.67;;;17.20;99.90;;;;;;5041504;28;20021;-63
2023/09/21 06:19:29;;;;;;;1.65;1.30;;;17.30;99.90;;;;;;5039668;28;20021;-65
2023/09/21 06:21:57;;;;;;;2.38;1.30;;;17.40;99.90;;;;;;5041358;28;20036;-63
2023/09/21 06:24:25;;;;;;;9.95;2.17;;;17.50;99.90;;;;;;5042754;28;20032;-65
2023/09/21 06:26:54;;;;;;;6.07;1.70;;;17.50;99.90;;;;;;5039547;28;20159;-67
2023/09/21 06:29:22;;;;;;;5.63;1.73;;;17.60;99.90;;;;;;5027228;28;20075;-65
2023/09/21 06:31:48;;;;;;;3.45;1.60;;;17.60;99.90;;;;;;5034704;28;20033;-68
2023/09/21 06:34:18;;;;;;;2.80;1.48;;;17.60;99.90;;;;;;5039138;28;20029;-66
2023/09/21 06:36:44;;;;;;;6.55;1.23;;;17.60;99.90;;;;;;5041880;28;20017;-65
2023/09/21 06:39:11;;;;;;;3.80;1.52;;;17.60;99.90;;;;;;5043688;28;20035;-67
2023/09/21 06:41:37;;;;;;;2.88;1.58;;;17.60;99.90;;;;;;5043864;28;20047;-66
2023/09/21 06:44:03;;;;;;;5.85;1.77;;;17.70;99.90;;;;;;5043051;28;20041;-65
2023/09/21 06:46:29;;;;;;;2.38;1.35;;;17.80;99.90;;;;;;5042222;28;20056;-64
2023/09/21 06:48:55;;;;;;;2.92;1.30;;;18.10;99.90;;;;;;5044572;28;20029;-66
2023/09/21 06:51:21;;;;;;;3.70;1.58;;;18.70;99.90;;;;;;5043419;28;20453;-67
2023/09/21 06:53:48;;;;;;;3.15;1.40;;;19.30;99.90;;;;;;5041719;28;20036;-67
2023/09/21 06:56:14;;;;;;;2.20;1.30;;;19.80;99.90;;;;;;5042764;28;20070;-65
2023/09/21 06:58:39;;;;;;;3.28;1.50;;;20.60;99.90;;;;;;5043491;28;20033;-66
2023/09/21 07:01:05;;;;;;;5.20;1.23;;;21.90;99.90;;;;;;5041925;28;20025;-66
2023/09/21 07:03:32;;;;;;;2.75;1.27;;;23.10;99.90;;;;;;5043490;28;20071;-68
2023/09/21 07:05:58;;;;;;;3.03;1.33;;;24.10;99.90;;;;;;5038599;28;20033;-66
2023/09/21 07:08:23;;;;;;;2.53;1.30;;;25.10;98.90;;;;;;5041476;28;20036;-66
2023/09/21 07:10:49;;;;;;;1.80;1.20;;;25.70;97.20;;;;;;5035920;28;20143;-67
2023/09/21 07:13:14;;;;;;;2.88;1.60;;;25.50;97.30;;;;;;5038289;28;20483;-65
2023/09/21 07:15:41;;;;;;;2.45;1.15;;;25.20;96.30;;;;;;5044734;28;20037;-65
2023/09/21 07:18:07;;;;;;;3.58;1.45;;;24.10;97.70;;;;;;5049177;28;20025;-65
2023/09/21 07:20:34;;;;;;;5.85;1.52;;;23.40;99.10;;;;;;5045859;28;20096;-66
2023/09/21 07:23:00;;;;;;;2.30;1.33;;;22.80;99.80;;;;;;5047054;28;20028;-65
2023/09/21 07:25:28;;;;;;;3.45;1.55;;;22.00;99.90;;;;;;5048999;28;20032;-65
2023/09/21 07:27:54;;;;;;;3.95;1.42;;;21.50;99.90;;;;;;5048926;28;20035;-63
2023/09/21 07:30:20;;;;;;;4.05;1.30;;;20.80;99.90;;;;;;5027502;28;20045;-64
2023/09/21 07:32:46;;;;;;;2.30;1.02;;;20.50;99.90;;;;;;5024290;28;20055;-65
2023/09/21 07:35:14;;;;;;;1.60;1.02;;;20.40;99.90;;;;;;5045389;28;20619;-66
2023/09/21 07:37:46;;;;;;;4.10;1.23;;;20.30;99.90;;;;;;5046234;28;20176;-66
2023/09/21 07:40:12;;;;;;;2.35;0.80;;;20.20;99.90;;;;;;5049481;28;20029;-66
2023/09/21 07:42:42;;;;;;;2.92;1.38;;;20.10;99.90;;;;;;5049208;28;20029;-65
2023/09/21 07:45:08;;;;;;;2.88;1.60;;;20.00;99.90;;;;;;5050167;28;20020;-66
2023/09/21 07:47:34;;;;;;;4.03;1.35;;;19.90;99.90;;;;;;5048206;28;20044;-65
2023/09/21 07:50:00;;;;;;;4.03;1.20;;;19.70;99.90;;;;;;5050377;28;20033;-63
2023/09/21 07:52:26;;;;;;;3.97;1.20;;;19.70;99.90;;;;;;5047652;28;20041;-64
2023/09/21 07:54:53;;;;;;;3.35;1.30;;;19.60;99.90;;;;;;5049422;28;20029;-65
2023/09/21 07:57:18;;;;;;;2.10;1.50;;;19.60;99.90;;;;;;5046902;28;20143;-66
2023/09/21 07:59:44;;;;;;;4.32;1.70;;;19.60;99.90;;;;;;5051544;28;20158;-65
2023/09/21 08:02:09;;;;;;;4.72;1.27;;;19.70;99.90;;;;;;5046352;28;20061;-65
2023/09/21 08:04:36;;;;;;;2.05;1.20;;;19.70;99.90;;;;;;5050452;28;20064;-66
2023/09/21 08:07:05;;;;;;;2.45;1.25;;;20.30;99.90;;;;;;5046838;28;20036;-68
2023/09/21 08:09:31;;;;;;;2.55;1.35;;;21.30;99.90;;;;;;5049839;28;20983;-65
2023/09/21 08:11:56;;;;;;;3.38;1.40;;;21.80;99.90;;;;;;5043980;28;20463;-65
2023/09/21 08:14:23;;;;;;;1.15;1.05;;;22.10;99.90;;;;;;5046743;28;20036;-68
2023/09/21 08:16:50;;;;;;;3.25;1.20;;;22.00;99.90;;;;;;5051042;28;20390;-66
2023/09/21 08:19:15;;;;;;;4.18;1.45;;;22.00;99.90;;;;;;5047903;28;20112;-65
2023/09/21 08:21:41;;;;;;;3.75;1.27;;;21.90;99.90;;;;;;5047932;28;20136;-66
2023/09/21 08:24:09;;;;;;;5.65;1.65;;;21.90;99.90;;;;;;5047585;28;20029;-64
2023/09/21 08:26:36;;;;;;;2.28;1.08;;;21.90;99.90;;;;;;5047412;28;20032;-66
2023/09/21 08:29:01;;;;;;;2.65;1.60;;;22.30;99.90;;;;;;5023162;28;20533;-66
2023/09/21 08:31:27;;;;;;;1.92;1.40;;;22.90;99.90;;;;;;5045596;28;20043;-66
2023/09/21 08:33:53;;;;;;;2.47;1.00;;;23.60;99.90;;;;;;5040720;28;20071;-65
2023/09/21 08:36:19;;;;;;;3.22;1.40;;;23.90;99.90;;;;;;5043702;28;20064;-66
2023/09/21 08:38:45;;;;;;;2.17;1.25;;;24.20;99.90;;;;;;5045857;28;20490;-66
2023/09/21 08:41:11;;;;;;;2.58;1.23;;;24.10;99.90;;;;;;5046802;28;20059;-67
2023/09/21 08:43:38;;;;;;;9.70;1.40;;;23.90;99.90;;;;;;5043287;28;20021;-65
2023/09/21 08:46:06;;;;;;;2.67;1.20;;;23.70;99.90;;;;;;5046404;28;20108;-66
2023/09/21 08:48:33;;;;;;;1.88;1.00;;;23.20;99.90;;;;;;5043161;28;20106;-65
2023/09/21 08:51:00;;;;;;;3.97;1.98;;;22.80;99.90;;;;;;5045413;28;20017;-65
2023/09/21 08:53:27;;;;;;;5.60;1.80;;;22.50;99.90;;;;;;5045461;28;20032;-67
2023/09/21 08:55:57;;;;;;;1.88;1.02;;;22.20;99.90;;;;;;5047880;28;20037;-64
2023/09/21 08:58:24;;;;;;;3.30;1.38;;;21.90;99.90;;;;;;5045094;28;20047;-67
2023/09/21 09:00:57;;;;;;;1.88;1.15;;;21.70;99.90;;;;;;5046112;28;20441;-64
2023/09/21 09:03:26;;;;;;;7.60;1.60;;;21.60;99.90;;;;;;5042896;28;20040;-66
2023/09/21 09:05:58;;;;;;;3.20;1.52;;;21.40;99.90;;;;;;5045909;28;20032;-62
2023/09/21 09:08:25;;;;;;;2.78;1.30;;;21.30;99.90;;;;;;5046819;28;20028;-65
2023/09/21 09:10:53;;;;;;;4.43;1.40;;;21.20;99.90;;;;;;5042636;28;20033;-67
2023/09/21 09:13:40;;;;;;;3.40;1.50;;;21.20;99.90;;;;;;5043341;28;20529;-66
2023/09/21 09:16:08;;;;;;;4.53;1.23;;;21.30;99.90;;;;;;5044124;28;20044;-64
2023/09/21 09:18:35;;;;;;;5.68;1.52;;;21.30;99.90;;;;;;5039954;28;20037;-65
2023/09/21 09:21:00;;;;;;;2.75;1.92;;;21.40;99.90;;;;;;5043600;28;20399;-66
2023/09/21 09:23:26;;;;;;;2.00;1.02;;;21.40;99.90;;;;;;5044526;28;20044;-65
2023/09/21 09:25:54;;;;;;;2.15;1.20;;;21.40;99.90;;;;;;5045432;28;20029;-65
2023/09/21 09:28:21;;;;;;;5.38;1.55;;;21.50;99.90;;;;;;5042188;28;20074;-66
2023/09/21 09:30:48;;;;;;;2.97;1.17;;;21.60;99.90;;;;;;5024918;28;20068;-64
2023/09/21 09:33:15;;;;;;;1.98;1.20;;;21.70;99.90;;;;;;5043500;28;20078;-65
2023/09/21 09:35:41;;;;;;;6.82;1.55;;;21.70;99.90;;;;;;5043780;28;20033;-67
2023/09/21 09:38:11;;;;;;;3.25;1.58;;;21.60;99.90;;;;;;5044523;28;20029;-65
2023/09/21 09:40:40;;;;;;;5.35;1.52;;;21.70;99.90;;;;;;5041258;28;20021;-65
2023/09/21 09:43:07;;;;;;;2.38;1.40;;;21.70;99.90;;;;;;5041398;28;20399;-67
2023/09/21 09:45:37;;;;;;;2.90;1.70;;;21.70;99.90;;;;;;5044098;28;20037;-65
2023/09/21 09:48:12;;;;;;;2.97;1.08;;;21.60;99.90;;;;;;5045040;28;20040;-65
2023/09/21 09:50:41;;;;;;;8.45;1.40;;;21.70;99.90;;;;;;5040285;28;20110;-66
2023/09/21 09:53:12;;;;;;;4.68;1.67;;;21.80;99.90;;;;;;5045359;28;20025;-65
2023/09/21 09:55:41;;;;;;;4.07;1.42;;;21.90;99.90;;;;;;5043345;28;20052;-65
2023/09/21 09:58:08;;;;;;;3.08;1.02;;;21.90;99.90;;;;;;5039992;28;20013;-64
2023/09/21 10:00:35;;;;;;;2.15;1.33;;;21.90;99.90;;;;;;5043730;28;20062;-66
2023/09/21 10:03:03;;;;;;;3.45;1.42;;;22.00;99.90;;;;;;5041773;28;20028;-66
2023/09/21 10:05:29;;;;;;;5.93;1.70;;;21.90;99.90;;;;;;5043662;28;20136;-66
2023/09/21 10:07:59;;;;;;;2.35;1.52;;;21.90;99.90;;;;;;5041504;28;20099;-64
2023/09/21 10:10:30;;;;;;;4.43;1.30;;;21.90;99.90;;;;;;5041626;28;20144;-65
2023/09/21 10:12:57;;;;;;;5.65;1.50;;;21.90;99.90;;;;;;5036846;28;20707;-66
2023/09/21 10:15:24;;;;;;;4.50;1.70;;;21.80;99.90;;;;;;5041123;28;20089;-66
2023/09/21 10:17:54;;;;;;;5.88;1.50;;;21.70;99.90;;;;;;5043978;28;20067;-65
2023/09/21 10:20:27;;;;;;;3.25;1.52;;;21.80;99.90;;;;;;5043283;28;20108;-65
2023/09/21 10:22:58;;;;;;;4.78;1.50;;;21.80;99.90;;;;;;5042001;28;20039;-65
2023/09/21 10:25:37;;;;;;;1.73;0.98;;;21.90;99.90;;;;;;5044062;28;20035;-67
2023/09/21 10:28:29;;;;;;;2.13;1.00;;;22.00;99.90;;;;;;5038729;28;20032;-66
2023/09/21 10:30:55;;;;;;;2.72;1.40;;;22.00;99.90;;;;;;5014901;28;20053;-66
2023/09/21 10:33:22;;;;;;;6.28;1.85;;;22.20;99.90;;;;;;5040666;28;20045;-65
2023/09/21 10:35:49;;;;;;;4.97;1.40;;;22.30;99.90;;;;;;5040961;28;20044;-64
2023/09/21 10:38:18;;;;;;;1.88;1.25;;;22.50;99.90;;;;;;5043778;28;20033;-65
2023/09/21 10:40:44;;;;;;;3.08;1.77;;;22.60;99.90;;;;;;5045502;28;20079;-65
2023/09/21 10:43:37;;;;;;;3.90;1.58;;;22.80;99.90;;;;;;5040674;28;20665;-67
2023/09/21 10:46:16;;;;;;;4.47;1.55;;;23.10;99.90;;;;;;5042981;28;20060;-67
2023/09/21 10:48:46;;;;;;;4.28;1.27;;;23.30;99.90;;;;;;5044195;28;20522;-65
2023/09/21 10:51:13;;;;;;;2.70;1.40;;;23.60;99.90;;;;;;5041844;28;20427;-65
2023/09/21 10:53:39;;;;;;;5.63;1.55;;;23.70;99.90;;;;;;5043421;28;20465;-66
2023/09/21 10:56:05;;;;;;;6.80;1.25;;;23.80;99.90;;;;;;5042811;28;20033;-66
2023/09/21 10:58:34;;;;;;;1.42;0.82;;;23.60;99.90;;;;;;5042677;28;20120;-66
2023/09/21 11:01:00;;;;;;;5.05;1.65;;;23.60;99.90;;;;;;5043858;28;20029;-65
2023/09/21 11:03:32;;;;;;;2.20;1.23;;;23.50;99.90;;;;;;5043551;28;20071;-66
2023/09/21 11:05:57;;;;;;;3.88;1.42;;;23.50;99.90;;;;;;5043245;28;20029;-65
2023/09/21 11:08:26;;;;;;;2.17;1.20;;;23.50;99.90;;;;;;5036936;28;20648;-66
2023/09/21 11:10:53;;;;;;;7.15;1.50;;;23.50;99.90;;;;;;5042180;28;20036;-65
2023/09/21 11:13:18;;;;;;;7.60;1.70;;;23.50;99.90;;;;;;5042918;28;20035;-66
2023/09/21 11:15:45;;;;;;;4.03;1.67;;;23.50;99.90;;;;;;5041108;28;20502;-69
2023/09/21 11:18:10;;;;;;;7.20;1.60;;;23.40;99.90;;;;;;5042887;28;20055;-65
2023/09/21 11:20:36;;;;;;;8.02;1.40;;;23.70;99.90;;;;;;5041770;28;20664;-65
2023/09/21 11:23:03;;;;;;;5.70;1.35;;;23.80;99.90;;;;;;5043322;28;20055;-66
2023/09/21 11:25:29;;;;;;;2.60;1.52;;;24.10;99.90;;;;;;5041932;28;20029;-67
2023/09/21 11:27:58;;;;;;;2.05;1.38;;;24.20;99.90;;;;;;5042043;28;20029;-64
2023/09/21 11:30:25;;;;;;;2.72;1.23;;;24.40;99.90;;;;;;5016613;28;20049;-66
2023/09/21 11:32:53;;;;;;;5.65;2.03;;;24.40;99.90;;;;;;5043466;28;20029;-65
2023/09/21 11:35:20;;;;;;;2.63;1.30;;;24.40;99.90;;;;;;5036978;28;20037;-66
2023/09/21 11:37:47;;;;;;;2.70;1.33;;;24.50;99.90;;;;;;5040060;28;20035;-65
2023/09/21 11:40:15;;;;;;;5.03;1.70;;;24.60;99.90;;;;;;5043357;28;20029;-66
2023/09/21 11:42:43;;;;;;;2.35;1.20;;;24.70;99.90;;;;;;5037226;28;20033;-65
2023/09/21 11:45:15;;;;;;;3.10;1.40;;;24.70;99.90;;;;;;5040789;28;20483;-67
2023/09/21 11:47:40;;;;;;;2.65;1.40;;;24.50;99.90;;;;;;5057354;28;20032;-65
2023/09/21 11:50:06;;;;;;;2.95;2.08;;;24.50;99.90;;;;;;5042368;28;20405;-65
2023/09/21 11:52:32;;;;;;;3.08;1.42;;;24.50;99.90;;;;;;5057222;28;20027;-68
2023/09/21 11:54:57;;;;;;;4.75;1.95;;;24.20;99.90;;;;;;5043210;28;20036;-66
2023/09/21 11:57:23;;;;;;;2.15;1.80;;;24.10;99.90;;;;;;5039894;28;21437;-64
2023/09/21 11:59:49;;;;;;;4.38;1.35;;;23.90;99.90;;;;;;5042307;28;20021;-65
2023/09/21 12:02:17;;;;;;;5.68;1.20;;;23.70;99.90;;;;;;5038028;28;20024;-66
2023/09/21 12:04:43;;;;;;;4.18;1.40;;;23.50;99.90;;;;;;5045204;28;20509;-65
2023/09/21 12:07:10;;;;;;;8.73;1.48;;;23.20;99.90;;;;;;5043107;28;20041;-65
2023/09/21 12:09:36;;;;;;;4.35;1.42;;;22.90;99.90;;;;;;5043913;28;20052;-65
2023/09/21 12:12:06;;;;;;;4.55;1.38;;;22.60;99.90;;;;;;5044267;28;20025;-65
2023/09/21 12:14:33;;;;;;;4.80;1.52;;;22.40;99.90;;;;;;5046197;28;20037;-66
2023/09/21 12:17:02;;;;;;;2.88;1.33;;;22.20;99.90;;;;;;5047677;28;20087;-67
2023/09/21 12:19:31;;;;;;;3.33;1.42;;;22.00;99.90;;;;;;5045991;28;20359;-65
2023/09/21 12:21:57;;;;;;;2.58;1.65;;;22.00;99.90;;;;;;5043481;28;21254;-65
2023/09/21 12:24:23;;;;;;;3.58;2.00;;;21.90;99.90;;;;;;5043579;28;20035;-66
2023/09/21 12:26:48;;;;;;;4.38;1.52;;;21.90;99.90;;;;;;5045630;28;20029;-65
2023/09/21 12:29:18;;;;;;;2.85;1.65;;;22.10;99.90;;;;;;5021910;28;20506;-65
2023/09/21 12:31:44;;;;;;;8.80;1.63;;;22.20;99.90;;;;;;5041905;28;21496;-67
2023/09/21 12:34:12;;;;;;;4.57;1.33;;;22.30;99.90;;;;;;5040921;28;20128;-65
2023/09/21 12:36:38;;;;;;;3.42;1.70;;;22.20;99.90;;;;;;5041753;28;20057;-65
2023/09/21 12:39:08;;;;;;;4.55;1.02;;;22.10;99.90;;;;;;5042221;28;20072;-66
2023/09/21 12:41:34;;;;;;;8.98;1.55;;;21.90;99.90;;;;;;5044829;28;20017;-67
2023/09/21 12:43:59;;;;;;;3.78;1.65;;;21.70;99.90;;;;;;5047841;28;20037;-65
2023/09/21 12:46:27;;;;;;;3.10;1.73;;;21.60;99.90;;;;;;5046888;28;20071;-65
2023/09/21 12:48:53;;;;;;;3.92;1.50;;;21.50;99.90;;;;;;5038186;28;20094;-66
2023/09/21 12:51:19;;;;;;;3.25;1.08;;;21.50;99.90;;;;;;5042867;28;20506;-66